Weather History for Salmon, ID

Change the Weather History Date:

Saturday, March 9, 2013

  Actual Average Record
Temperature  
Mean Temperature 30 °F -  
Max Temperature 44 °F 42 °F 64 °F (1989)
Min Temperature 17 °F 22 °F 6 °F (1985)
Degree Days  
Heating Degree Days 34    
Moisture  
Dew Point 19 °F    
Average Humidity 65    
Maximum Humidity 93    
Minimum Humidity 37    
Precipitation  
Precipitation 0.00 in - - ()
Sea Level Pressure  
Sea Level Pressure 30.17 in    
Wind  
Wind Speed 3 mph (South)    
Max Wind Speed 8 mph    
Max Gust Speed -    
Visibility 10 miles    
Events      
Averages and records for this station are not official NWS values.
T = Trace of Precipitation, MM = Missing Value Source: NWS Daily Summary

Daily Weather History Graph

Daily Weather History Graph

Search for Another Location

Airport:

Trip Planner

Search our weather history database for the weather conditions in past years. The results will help you decide how hot, cold, wet, or windy it might be!

Date:

Astronomy

Mar. 09, 2013 Rise Set
Actual Time 6:58 AM MST 6:34 PM MST
Civil Twilight 6:29 AM MST 7:03 PM MST
Nautical Twilight 5:55 AM MST 7:37 PM MST
Astronomical Twilight 5:20 AM MST 8:12 PM MST
Moon 5:29 AM MST (3/9) 4:37 PM MST (3/9)
Length of Visible Light 12h 34m
Length of Day
11h 35m
Waning Crescent, 5% of the Moon is Illuminated
Mar 9
Waning Crescent
Mar 11
New
Mar 19
First Quarter
Mar 27
Full
Apr 2
Last Quarter

Hourly Weather History & Observations

Time (MST) Temp. Windchill Dew Point Humidity Pressure Visibility Wind Dir Wind Speed Gust Speed Precip Events Conditions
12:15 AM 24.8 °F 19.1 °F 17.6 °F 74% 29.97 in 10.0 mi SSE 4.6 mph - N/A   Clear
12:35 AM 24.8 °F 19.1 °F 19.4 °F 80% 29.97 in 10.0 mi SE 4.6 mph - N/A   Clear
12:55 AM 24.8 °F - 19.4 °F 80% 29.98 in 10.0 mi Calm Calm - N/A   Clear
1:15 AM 24.8 °F 20.5 °F 17.6 °F 74% 29.99 in 10.0 mi ESE 3.5 mph - N/A   Clear
1:35 AM 23.0 °F - 17.6 °F 80% 29.99 in 10.0 mi Calm Calm - N/A   Clear
1:55 AM 23.0 °F - 19.4 °F 86% 30.00 in 10.0 mi Calm Calm - N/A   Clear
2:15 AM 21.2 °F 16.4 °F 19.4 °F 93% 30.00 in 10.0 mi SSE 3.5 mph - N/A   Clear
2:35 AM 21.2 °F - 19.4 °F 93% 30.01 in 10.0 mi Calm Calm - N/A   Clear
2:55 AM 21.2 °F - 19.4 °F 93% 30.01 in 10.0 mi Calm Calm - N/A   Clear
3:15 AM 21.2 °F - 17.6 °F 86% 30.02 in 10.0 mi Calm Calm - N/A   Clear
3:35 AM 21.2 °F - 17.6 °F 86% 30.03 in 10.0 mi Calm Calm - N/A   Clear
3:55 AM 19.4 °F - 17.6 °F 93% 30.04 in 10.0 mi Calm Calm - N/A   Clear
4:15 AM 21.2 °F - 19.4 °F 93% 30.05 in 10.0 mi Calm Calm - N/A   Clear
4:35 AM 19.4 °F - 15.8 °F 86% 30.05 in 10.0 mi Calm Calm - N/A   Clear
4:55 AM 19.4 °F - 17.6 °F 93% 30.06 in 10.0 mi Calm Calm - N/A   Clear
5:15 AM 19.4 °F - 15.8 °F 86% 30.07 in 10.0 mi Calm Calm - N/A   Clear
5:35 AM 19.4 °F 14.3 °F 15.8 °F 86% 30.08 in 10.0 mi SSE 3.5 mph - N/A   Clear
5:55 AM 19.4 °F - 17.6 °F 93% 30.09 in 10.0 mi Calm Calm - N/A   Clear
6:35 AM 17.6 °F - 15.8 °F 93% 30.10 in 10.0 mi Calm Calm - N/A   Clear
6:55 AM 19.4 °F - 14.0 °F 80% 30.11 in 10.0 mi Calm Calm - N/A   Clear
7:15 AM 17.6 °F - 15.8 °F 93% 30.12 in 10.0 mi Calm Calm - N/A   Clear
7:35 AM 19.4 °F - 17.6 °F 93% 30.13 in 8.0 mi Calm Calm - N/A   Clear
7:55 AM 21.2 °F 16.4 °F 17.6 °F 86% 30.14 in 10.0 mi SE 3.5 mph - N/A   Clear
8:15 AM 24.8 °F - 19.4 °F 80% 30.16 in 10.0 mi Calm Calm - N/A   Clear
8:35 AM 24.8 °F - 19.4 °F 80% 30.17 in 10.0 mi Calm Calm - N/A   Partly Cloudy
8:55 AM 26.6 °F - 19.4 °F 74% 30.18 in 10.0 mi Calm Calm - N/A   Partly Cloudy
9:15 AM 26.6 °F 21.2 °F 19.4 °F 74% 30.18 in 10.0 mi SSW 4.6 mph - N/A   Mostly Cloudy
9:35 AM 28.4 °F 24.6 °F 21.2 °F 74% 30.19 in 10.0 mi South 3.5 mph - N/A   Mostly Cloudy
9:55 AM 30.2 °F - 21.2 °F 69% 30.19 in 10.0 mi Calm Calm - N/A   Mostly Cloudy
10:35 AM 33.8 °F - 21.2 °F 60% 30.19 in 10.0 mi Calm Calm - N/A   Mostly Cloudy
10:55 AM 35.6 °F - 21.2 °F 56% 30.19 in 10.0 mi Calm Calm - N/A   Partly Cloudy
11:15 AM 35.6 °F 31.7 °F 21.2 °F 56% 30.19 in 10.0 mi SSW 4.6 mph - N/A   Clear
11:35 AM 37.4 °F 31.4 °F 19.4 °F 48% 30.19 in 10.0 mi SSW 8.1 mph - N/A   Clear
11:55 AM 39.2 °F 35.9 °F 21.2 °F 49% 30.19 in 10.0 mi SSW 4.6 mph - N/A   Clear
12:15 PM 41.0 °F 35.8 °F 21.2 °F 45% 30.19 in 10.0 mi South 8.1 mph - N/A   Clear
12:35 PM 39.2 °F 35.0 °F 19.4 °F 45% 30.19 in 10.0 mi West 5.8 mph - N/A   Clear
12:55 PM 41.0 °F 36.4 °F 19.4 °F 42% 30.18 in 10.0 mi SSW 6.9 mph - N/A   Clear
1:15 PM 39.2 °F 37.0 °F 19.4 °F 45% 30.18 in 10.0 mi West 3.5 mph - N/A   Clear
1:35 PM 41.0 °F 36.4 °F 17.6 °F 39% 30.18 in 10.0 mi South 6.9 mph - N/A   Clear
1:55 PM 41.0 °F 36.4 °F 21.2 °F 45% 30.17 in 10.0 mi SW 6.9 mph - N/A   Clear
2:15 PM 42.8 °F 39.3 °F 19.4 °F 39% 30.17 in 10.0 mi South 5.8 mph - N/A   Clear
2:35 PM 44.6 °F 40.2 °F 19.4 °F 37% 30.17 in 10.0 mi South 8.1 mph - N/A   Clear
2:55 PM 44.6 °F 40.7 °F 19.4 °F 37% 30.17 in 10.0 mi South 6.9 mph - N/A   Clear
3:15 PM 42.8 °F 41.1 °F 19.4 °F 39% 30.18 in 10.0 mi SW 3.5 mph - N/A   Clear
3:35 PM 44.6 °F 41.4 °F 19.4 °F 37% 30.18 in 10.0 mi SW 5.8 mph - N/A   Clear
3:55 PM 44.6 °F 42.2 °F 19.4 °F 37% 30.18 in 10.0 mi SSW 4.6 mph - N/A   Clear
4:15 PM 44.6 °F 42.2 °F 19.4 °F 37% 30.19 in 10.0 mi SW 4.6 mph - N/A   Clear
4:35 PM 44.6 °F 42.2 °F 19.4 °F 37% 30.20 in 10.0 mi WSW 4.6 mph - N/A   Clear
4:55 PM 44.6 °F 42.2 °F 19.4 °F 37% 30.20 in 10.0 mi SW 4.6 mph - N/A   Clear
5:15 PM 44.6 °F 41.4 °F 21.2 °F 39% 30.20 in 10.0 mi SW 5.8 mph - N/A   Clear
5:35 PM 44.6 °F 41.4 °F 23.0 °F 43% 30.21 in 10.0 mi SSW 5.8 mph - N/A   Clear
5:55 PM 42.8 °F - 21.2 °F 42% 30.21 in 10.0 mi Calm Calm - N/A   Clear
6:15 PM 42.8 °F 40.1 °F 19.4 °F 39% 30.22 in 10.0 mi NW 4.6 mph - N/A   Clear
6:35 PM 39.2 °F - 19.4 °F 45% 30.23 in 10.0 mi Calm Calm - N/A   Clear
6:55 PM 37.4 °F - 21.2 °F 52% 30.24 in 10.0 mi Calm Calm - N/A   Clear
7:15 PM 35.6 °F 32.8 °F 21.2 °F 56% 30.25 in 10.0 mi East 3.5 mph - N/A   Clear
7:35 PM 35.6 °F 30.7 °F 21.2 °F 56% 30.26 in 10.0 mi SSE 5.8 mph - N/A   Clear
7:55 PM 33.8 °F 29.6 °F 21.2 °F 60% 30.27 in 10.0 mi SE 4.6 mph - N/A   Clear
8:15 PM 35.6 °F 29.2 °F 21.2 °F 56% 30.28 in 10.0 mi SE 8.1 mph - N/A   Clear
8:35 PM 33.8 °F - 21.2 °F 60% 30.29 in 10.0 mi Calm Calm - N/A   Clear
8:55 PM 35.6 °F 31.7 °F 21.2 °F 56% 30.29 in 10.0 mi SE 4.6 mph - N/A   Clear
9:15 PM 33.8 °F 30.8 °F 21.2 °F 60% 30.31 in 10.0 mi SSE 3.5 mph - N/A   Clear
9:35 PM 35.6 °F 30.7 °F 21.2 °F 56% 30.32 in 10.0 mi ESE 5.8 mph - N/A   Clear
9:55 PM 33.8 °F 29.6 °F 21.2 °F 60% 30.32 in 10.0 mi SE 4.6 mph - N/A   Clear
10:15 PM 32.0 °F 28.7 °F 21.2 °F 64% 30.32 in 10.0 mi ENE 3.5 mph - N/A   Clear
10:35 PM 32.0 °F 27.5 °F 21.2 °F 64% 30.32 in 10.0 mi East 4.6 mph - N/A   Clear
10:55 PM 28.4 °F 24.6 °F 21.2 °F 74% 30.33 in 10.0 mi SSW 3.5 mph - N/A   Clear
11:15 PM 30.2 °F 26.7 °F 21.2 °F 69% 30.33 in 10.0 mi East 3.5 mph - N/A   Clear
11:35 PM 28.4 °F - 19.4 °F 69% 30.35 in 10.0 mi Calm Calm - N/A   Clear
11:55 PM 26.6 °F 22.6 °F 21.2 °F 80% 30.34 in 10.0 mi ESE 3.5 mph - N/A   Clear